createdAt,value
2018-08-25T00:01:17.744Z,3.8
2018-08-25T00:04:17.710Z,3.7
2018-08-25T00:10:17.734Z,4
2018-08-25T00:13:17.484Z,3.9
2018-08-25T00:16:17.570Z,3.9
2018-08-25T00:19:17.670Z,3.9
2018-08-25T00:22:17.564Z,3.8
2018-08-25T00:25:17.699Z,3.8
2018-08-25T00:28:18.078Z,3.9
2018-08-25T00:31:17.763Z,3.7
2018-08-25T00:34:17.606Z,3.6
2018-08-25T00:40:17.604Z,3.5
2018-08-25T00:43:17.547Z,3.5
2018-08-25T00:46:17.638Z,3.5
2018-08-25T00:49:17.573Z,3.6
2018-08-25T00:52:17.577Z,3.6
2018-08-25T00:55:17.599Z,3.6
2018-08-25T00:58:17.920Z,3.6
2018-08-25T01:01:17.775Z,3.5
2018-08-25T01:04:17.825Z,3.6
2018-08-25T01:10:18.145Z,3.5
2018-08-25T01:13:17.682Z,3.6
2018-08-25T01:16:17.521Z,3.6
2018-08-25T01:19:17.510Z,3.5
2018-08-25T01:22:17.871Z,3.4
2018-08-25T01:25:17.548Z,3.4
2018-08-25T01:28:17.852Z,3.4
2018-08-25T01:31:17.646Z,5.3
2018-08-25T01:34:17.659Z,4.5
2018-08-25T01:40:17.536Z,3.8
2018-08-25T01:43:17.540Z,3.5
2018-08-25T01:46:17.502Z,3.5
2018-08-25T01:49:17.472Z,3.7
2018-08-25T01:52:17.309Z,3.6
2018-08-25T01:55:17.891Z,3.4
2018-08-25T01:58:17.696Z,3.5
2018-08-25T02:01:17.661Z,3.4
2018-08-25T02:04:17.671Z,3.5
2018-08-25T02:10:17.820Z,3.5
2018-08-25T02:13:17.612Z,3.4
2018-08-25T02:16:17.481Z,3.4
2018-08-25T02:19:17.577Z,3.3
2018-08-25T02:22:17.905Z,3.2
2018-08-25T02:25:17.492Z,3.1
2018-08-25T02:28:19.526Z,3
2018-08-25T02:31:17.662Z,3
2018-08-25T02:34:17.848Z,3.1
2018-08-25T02:40:17.647Z,3.1
2018-08-25T02:43:17.708Z,3.1
2018-08-25T02:46:17.439Z,3.1
2018-08-25T02:49:17.721Z,3.1
2018-08-25T02:52:17.616Z,3.1
2018-08-25T02:55:17.709Z,3.2
2018-08-25T02:58:17.493Z,3.2
2018-08-25T03:01:17.655Z,3.2
2018-08-25T03:04:17.714Z,3.2
2018-08-25T03:10:17.514Z,3.2
2018-08-25T03:13:17.574Z,3
2018-08-25T03:16:17.718Z,3.1
2018-08-25T03:19:17.614Z,3
2018-08-25T03:22:17.655Z,3
2018-08-25T03:25:17.707Z,2.9
2018-08-25T03:28:17.701Z,3.1
2018-08-25T03:31:18.022Z,3.2
2018-08-25T03:34:17.578Z,3.1
2018-08-25T03:40:17.594Z,3
2018-08-25T03:43:17.749Z,2.9
2018-08-25T03:46:17.594Z,2.9
2018-08-25T03:49:17.662Z,2.9
2018-08-25T03:52:17.642Z,2.9
2018-08-25T03:55:18.001Z,2.9
2018-08-25T03:58:17.868Z,3
2018-08-25T04:01:17.737Z,2.9
2018-08-25T04:04:17.560Z,2.9
2018-08-25T04:10:17.579Z,2.9
2018-08-25T04:13:17.574Z,2.9
2018-08-25T04:16:17.645Z,2.9
2018-08-25T04:19:17.723Z,2.8
2018-08-25T04:22:18.756Z,2.7
2018-08-25T04:25:17.546Z,2.8
2018-08-25T04:28:18.005Z,2.7
2018-08-25T04:31:17.433Z,2.7
2018-08-25T04:34:17.494Z,2.7
2018-08-25T04:40:17.674Z,2.7
2018-08-25T04:43:17.585Z,2.7
2018-08-25T04:46:17.408Z,2.6
2018-08-25T04:49:17.711Z,2.6
2018-08-25T04:52:18.211Z,2.7
2018-08-25T04:55:17.505Z,2.7
2018-08-25T04:58:17.488Z,2.7
2018-08-25T05:01:17.668Z,2.7
2018-08-25T05:04:17.521Z,2.7
2018-08-25T05:10:17.783Z,2.7
2018-08-25T05:13:17.502Z,2.6
2018-08-25T05:16:17.479Z,2.7
2018-08-25T05:19:17.567Z,2.5
2018-08-25T05:22:17.647Z,2.6
2018-08-25T05:25:17.418Z,2.5
2018-08-25T05:28:17.335Z,2.5
2018-08-25T05:31:17.674Z,2.6
2018-08-25T05:34:17.471Z,2.7
2018-08-25T05:40:17.612Z,2.6
2018-08-25T05:43:17.500Z,2.5
2018-08-25T05:46:17.494Z,2.5
2018-08-25T05:49:17.634Z,2.7
2018-08-25T05:52:17.521Z,2.5
2018-08-25T05:55:17.621Z,2.6
2018-08-25T05:58:17.434Z,2.6
2018-08-25T06:01:17.719Z,2.5
2018-08-25T06:04:17.653Z,2.4
2018-08-25T06:10:17.554Z,2.4
2018-08-25T06:13:17.717Z,2.4
2018-08-25T06:16:17.680Z,2.4
2018-08-25T06:19:18.874Z,2.6
2018-08-25T06:22:17.416Z,2.5
2018-08-25T06:25:17.468Z,2.4
2018-08-25T06:28:17.571Z,2.5
2018-08-25T06:31:17.864Z,2.5
2018-08-25T06:34:17.371Z,2.6
2018-08-25T06:40:17.636Z,2.5
2018-08-25T06:43:17.554Z,2.5
2018-08-25T06:46:17.510Z,2.4
2018-08-25T06:49:17.568Z,2.4
2018-08-25T06:52:17.500Z,2.4
2018-08-25T06:55:17.388Z,2.5
2018-08-25T06:58:17.376Z,2.5
2018-08-25T07:01:17.575Z,2.5
2018-08-25T07:04:17.576Z,2.5
2018-08-25T07:10:17.673Z,2.4
2018-08-25T07:13:17.538Z,2.5
2018-08-25T07:16:17.549Z,2.4
2018-08-25T07:19:17.564Z,2.4
2018-08-25T07:22:17.497Z,2.4
2018-08-25T07:25:17.560Z,2.5
2018-08-25T07:28:17.681Z,2.4
2018-08-25T07:31:17.494Z,5.2
2018-08-25T07:34:17.696Z,5.6
2018-08-25T07:40:17.443Z,6.7
2018-08-25T07:43:17.420Z,6.7
2018-08-25T07:46:17.448Z,7.3
2018-08-25T07:49:17.584Z,8.4
2018-08-25T07:52:17.572Z,8
2018-08-25T07:55:17.603Z,6.9
2018-08-25T07:58:17.831Z,7
2018-08-25T08:01:17.672Z,7
2018-08-25T08:04:17.354Z,6.7
2018-08-25T08:10:17.633Z,7.3
2018-08-25T08:13:17.421Z,7.7
2018-08-25T08:16:17.434Z,7.4
2018-08-25T08:19:17.457Z,6.8
2018-08-25T08:22:17.615Z,6.6
2018-08-25T08:25:17.585Z,6.8
2018-08-25T08:28:17.898Z,7.1
2018-08-25T08:31:17.745Z,6.5
2018-08-25T08:34:17.636Z,6
2018-08-25T08:40:17.596Z,7.1
2018-08-25T08:43:17.785Z,7.6
2018-08-25T08:46:17.405Z,7.4
2018-08-25T08:49:17.341Z,7.6
2018-08-25T08:52:17.454Z,7.5
2018-08-25T08:55:17.559Z,7.6
2018-08-25T08:58:18.346Z,9.4
2018-08-25T09:01:17.900Z,13.5
2018-08-25T09:04:17.524Z,11.5
2018-08-25T09:10:17.375Z,12.2
2018-08-25T09:13:17.571Z,15.9
2018-08-25T09:16:17.475Z,16.5
2018-08-25T09:19:18.107Z,14.6
2018-08-25T09:22:17.485Z,12.1
2018-08-25T09:25:17.471Z,14.6
2018-08-25T09:31:07.316Z,9.2
2018-08-25T09:34:07.094Z,9.4
2018-08-25T09:37:50.910Z,9.3
2018-08-25T09:38:51.363Z,7.8
2018-08-25T09:39:50.865Z,7.2
2018-08-25T09:40:51.006Z,7.2
2018-08-25T09:41:52.148Z,6.7
2018-08-25T09:42:50.817Z,8.3
2018-08-25T09:43:50.862Z,7.5
2018-08-25T09:44:50.986Z,11.8
2018-08-25T09:45:50.926Z,10
2018-08-25T09:47:51.168Z,8.9
2018-08-25T09:48:50.891Z,10.2
2018-08-25T09:49:50.977Z,9.7
2018-08-25T09:50:51.038Z,8
2018-08-25T09:51:51.215Z,7.3
2018-08-25T09:52:51.383Z,6.7
2018-08-25T10:15:54.762Z,4.7
2018-08-25T10:16:55.884Z,5.8
2018-08-25T10:17:54.721Z,6.2
2018-08-25T10:20:51.114Z,8.9
2018-08-25T10:21:51.405Z,7.1
2018-08-25T10:22:51.927Z,6.3
2018-08-25T10:23:51.246Z,7
2018-08-25T10:24:51.345Z,6.7
2018-08-25T10:25:51.321Z,6
2018-08-25T10:26:51.034Z,5.9
2018-08-25T10:27:51.162Z,6.1
2018-08-25T10:28:51.749Z,5.6
2018-08-25T10:30:51.214Z,5.8
2018-08-25T10:31:51.139Z,5.4
2018-08-25T10:32:51.041Z,4.9
2018-08-25T10:33:51.009Z,4.9
2018-08-25T10:35:52.835Z,4.9
2018-08-25T10:36:51.802Z,4.3
2018-08-25T10:37:51.520Z,4.3
2018-08-25T10:38:51.451Z,4.2
2018-08-25T10:39:51.510Z,4.5
2018-08-25T10:40:51.524Z,4.5
2018-08-25T10:41:54.043Z,5.4
2018-08-25T10:42:51.621Z,4.9
2018-08-25T10:43:51.624Z,8.2
2018-08-25T10:44:51.600Z,7.4
2018-08-25T10:45:51.477Z,6.5
2018-08-25T10:46:51.779Z,5.4
2018-08-25T10:47:51.647Z,4.8
2018-08-25T10:48:51.685Z,6.3
2018-08-25T10:49:51.660Z,6.2
2018-08-25T10:50:51.650Z,6.9
2018-08-25T10:51:51.656Z,6.4
2018-08-25T10:52:51.641Z,6
2018-08-25T10:53:52.231Z,9.3
2018-08-25T10:54:51.852Z,9.3
2018-08-25T10:55:51.868Z,7.7
2018-08-25T10:57:56.955Z,9.9
2018-08-25T10:58:56.934Z,8.5
2018-08-25T10:59:57.368Z,8.8
2018-08-25T11:00:59.853Z,7.2
2018-08-25T11:01:57.199Z,7.1
2018-08-25T11:02:57.014Z,7.4
2018-08-25T11:03:57.151Z,7.6
2018-08-25T11:04:56.985Z,8.4
2018-08-25T11:05:57.438Z,8.5
2018-08-25T11:06:57.141Z,8.8
2018-08-25T11:07:56.987Z,8.2
2018-08-25T11:08:59.082Z,9.6
2018-08-25T11:09:57.052Z,12.9
2018-08-25T11:10:57.256Z,9.7
2018-08-25T11:11:57.088Z,8.9
2018-08-25T11:12:57.003Z,10.2
2018-08-25T11:13:56.994Z,10.6
2018-08-25T11:14:57.065Z,8.6
2018-08-25T11:15:57.161Z,9.9
2018-08-25T11:16:57.108Z,9
2018-08-25T11:17:56.992Z,9.3
2018-08-25T11:18:57.412Z,11
2018-08-25T11:19:57.177Z,8.7
2018-08-25T11:20:57.398Z,9.2
2018-08-25T11:21:57.150Z,9.8
2018-08-25T11:22:57.001Z,9.5
2018-08-25T11:23:57.204Z,9.3
2018-08-25T11:24:57.197Z,7.8
2018-08-25T11:25:56.976Z,9.2
2018-08-25T11:26:56.947Z,8.1
2018-08-25T11:27:57.048Z,10.5
2018-08-25T11:28:57.116Z,9.9
2018-08-25T11:29:57.301Z,8.3
2018-08-25T11:30:57.053Z,7.1
2018-08-25T11:31:57.121Z,5.8
2018-08-25T11:32:57.112Z,6.6
2018-08-25T11:33:57.211Z,6.9
2018-08-25T11:34:57.087Z,6.5
2018-08-25T11:35:56.935Z,6.9
2018-08-25T11:36:56.951Z,6.1
2018-08-25T11:39:07.071Z,3.3
2018-08-25T11:42:06.831Z,3.4
2018-08-25T11:45:06.864Z,3.9
2018-08-25T11:48:07.132Z,4.9
2018-08-25T11:49:06.920Z,4.5
2018-08-25T11:51:06.787Z,3.9
2018-08-25T11:55:26.097Z,4.7
2018-08-25T11:56:26.215Z,3.5
2018-08-25T11:58:25.385Z,3.4
2018-08-25T12:01:25.372Z,3.4
2018-08-25T12:04:25.516Z,3.1
2018-08-25T12:07:25.426Z,3.8
2018-08-25T12:08:25.681Z,4.2
2018-08-25T12:10:25.131Z,3.4
2018-08-25T12:13:25.330Z,3
2018-08-25T12:16:26.326Z,2.9
2018-08-25T12:18:25.827Z,2.4
2018-08-25T12:19:25.520Z,2.5
2018-08-25T12:22:25.244Z,2.2
2018-08-25T12:25:25.484Z,2.3
2018-08-25T12:28:25.605Z,2.8
2018-08-25T12:31:25.471Z,2.9
2018-08-25T12:34:25.784Z,2.9
2018-08-25T12:37:25.649Z,2.8
2018-08-25T12:38:25.418Z,3
2018-08-25T12:40:25.585Z,2.9
2018-08-25T12:43:26.134Z,2.6
2018-08-25T12:46:25.520Z,2.8
2018-08-25T12:48:25.892Z,2.8
2018-08-25T12:49:25.662Z,3
2018-08-25T12:52:25.445Z,2.9
2018-08-25T12:55:26.841Z,3.1
2018-08-25T12:58:25.456Z,2.7
2018-08-25T13:01:25.468Z,2.5
2018-08-25T13:04:25.629Z,2.6
2018-08-25T13:07:26.091Z,2.6
2018-08-25T13:08:25.510Z,2.2
2018-08-25T13:10:25.406Z,2
2018-08-25T13:13:25.528Z,2.2
2018-08-25T13:16:25.584Z,3.5
2018-08-25T13:18:25.318Z,5
2018-08-25T13:19:25.640Z,4.4
2018-08-25T13:22:25.496Z,4.5
2018-08-25T13:25:25.833Z,4.1
2018-08-25T13:28:25.358Z,3.5
2018-08-25T13:31:26.599Z,3.6
2018-08-25T13:34:25.371Z,3.6
2018-08-25T13:37:25.550Z,3.5
2018-08-25T13:38:25.382Z,3.1
2018-08-25T13:40:25.425Z,2.8
2018-08-25T13:45:30.426Z,3.1
2018-08-25T13:48:29.438Z,3.4
2018-08-25T13:51:29.580Z,3.6
2018-08-25T13:54:29.583Z,2.9
2018-08-25T13:57:29.437Z,4.3
2018-08-25T14:02:58.000Z,3.7
2018-08-25T14:05:58.074Z,3.8
2018-08-25T14:08:58.165Z,4.4
2018-08-25T14:11:57.936Z,3.1
2018-08-25T14:14:57.953Z,2.6
2018-08-25T14:17:57.891Z,3
2018-08-25T14:20:57.870Z,3.4
2018-08-25T14:23:58.088Z,3
2018-08-25T14:26:57.762Z,3
2018-08-25T14:29:57.822Z,2.8
2018-08-25T14:32:57.775Z,2.6
2018-08-25T14:35:58.179Z,2.7
2018-08-25T14:38:58.013Z,2.7
2018-08-25T14:41:58.174Z,3
2018-08-25T14:44:58.259Z,2.7
2018-08-25T14:47:57.906Z,3
2018-08-25T14:50:57.915Z,3
2018-08-25T14:53:58.008Z,2.8
2018-08-25T14:56:57.899Z,2.9
2018-08-25T14:59:57.982Z,2.9
2018-08-25T15:02:58.101Z,2.4
2018-08-25T15:05:58.023Z,2.5
2018-08-25T15:08:57.836Z,2.5
2018-08-25T15:11:58.081Z,2.1
2018-08-25T15:14:58.080Z,4.2
2018-08-25T15:17:57.980Z,3.4
2018-08-25T15:20:57.903Z,3
2018-08-25T15:23:57.974Z,3.2
2018-08-25T15:26:57.957Z,7
2018-08-25T15:29:57.796Z,5.3
2018-08-25T15:32:58.306Z,4.5
2018-08-25T15:35:57.947Z,4.6
2018-08-25T15:38:57.913Z,3.4
2018-08-25T15:41:57.784Z,2.5
2018-08-25T15:44:57.826Z,2.2
2018-08-25T15:47:57.967Z,2.3
2018-08-25T15:50:57.956Z,2.5
2018-08-25T15:53:57.943Z,2.3
2018-08-25T15:56:57.786Z,2.2
2018-08-25T15:59:57.909Z,1.9
2018-08-25T16:02:57.986Z,2.7
2018-08-25T16:05:58.772Z,2.6
2018-08-25T16:08:58.076Z,2.5
2018-08-25T16:11:59.835Z,2.2
2018-08-25T16:14:57.955Z,2
2018-08-25T16:17:57.917Z,2.2
2018-08-25T16:20:57.943Z,2.8
2018-08-25T16:23:57.813Z,3
2018-08-25T16:26:58.493Z,2.4
2018-08-25T16:29:58.019Z,2.5
2018-08-25T16:32:57.953Z,2.3
2018-08-25T16:35:57.953Z,2.1
2018-08-25T16:38:57.871Z,3.1
2018-08-25T16:41:58.022Z,7.3
2018-08-25T16:44:58.053Z,6.1
2018-08-25T17:14:50.855Z,2.3
2018-08-25T17:17:51.165Z,1.9
2018-08-25T17:31:57.889Z,1.9
2018-08-25T17:34:57.832Z,2.4
2018-08-25T17:37:57.927Z,2.7
2018-08-25T17:40:57.879Z,2.5
2018-08-25T17:43:57.962Z,2.3
2018-08-25T17:46:58.019Z,2.1
2018-08-25T17:49:57.762Z,4.5
2018-08-25T17:52:57.951Z,3.3
2018-08-25T17:55:57.975Z,2.5
2018-08-25T17:58:58.004Z,2.2
2018-08-25T18:01:58.097Z,1.9
2018-08-25T18:04:57.863Z,2.1
2018-08-25T18:07:58.016Z,3.3
2018-08-25T18:10:58.636Z,4
2018-08-25T18:13:57.939Z,4
2018-08-25T18:16:57.897Z,3.7
2018-08-25T18:19:57.887Z,3
2018-08-25T18:22:57.932Z,2.6
2018-08-25T18:25:57.709Z,4.5
2018-08-25T18:28:57.766Z,5.1
2018-08-25T18:31:58.508Z,3.9
2018-08-25T18:34:58.093Z,3.4
2018-08-25T18:37:57.970Z,2.8
2018-08-25T18:40:57.804Z,2.5
2018-08-25T18:43:57.693Z,3
2018-08-25T18:46:57.948Z,2.7
2018-08-25T18:49:58.040Z,3.1
2018-08-25T18:52:58.071Z,3.8
2018-08-25T18:55:57.750Z,4.3
2018-08-25T18:58:57.927Z,5
2018-08-25T19:01:59.464Z,3.8
2018-08-25T19:04:57.944Z,3.2
2018-08-25T19:07:57.917Z,3.7
2018-08-25T19:10:57.813Z,5
2018-08-25T19:13:58.227Z,6
2018-08-25T19:16:57.842Z,5.6
2018-08-25T19:19:57.764Z,4.9
2018-08-25T19:22:58.265Z,6.3
2018-08-25T19:29:10.945Z,5.2
2018-08-25T19:32:11.161Z,4
2018-08-25T19:35:11.085Z,4.1
2018-08-25T19:38:10.965Z,4.2
2018-08-25T19:41:11.679Z,4.2
2018-08-25T19:44:10.913Z,5.1
2018-08-25T19:47:12.515Z,5.6
2018-08-25T19:50:11.122Z,3.9
2018-08-25T19:53:12.160Z,4.2
2018-08-25T19:56:10.978Z,4
2018-08-25T19:59:11.517Z,3.2
2018-08-25T20:02:11.209Z,3
2018-08-25T20:05:12.113Z,3.1
2018-08-25T20:08:11.288Z,2.7
2018-08-25T20:11:11.198Z,3
2018-08-25T20:14:11.169Z,2.9
2018-08-25T20:17:11.267Z,2.9
2018-08-25T20:20:11.057Z,2.8
2018-08-25T20:23:11.662Z,2.8
2018-08-25T20:26:11.226Z,2.7
2018-08-25T20:29:11.193Z,2.5
2018-08-25T20:32:11.217Z,2.8
2018-08-25T20:35:10.958Z,2.4
2018-08-25T20:38:12.095Z,2.6
2018-08-25T20:41:11.183Z,2.7
2018-08-25T20:44:11.355Z,2.5
2018-08-25T20:47:11.135Z,4.3
2018-08-25T20:50:11.953Z,4
2018-08-25T20:53:11.723Z,3.6
2018-08-25T20:56:11.073Z,2.9
2018-08-25T20:59:11.051Z,3
2018-08-25T21:02:11.195Z,2.4
2018-08-25T21:05:11.004Z,2.3
2018-08-25T21:08:11.103Z,2.4
2018-08-25T21:11:11.319Z,2.1
2018-08-25T21:14:10.992Z,2.4
2018-08-25T21:17:11.109Z,2
2018-08-25T21:20:11.961Z,2.4
2018-08-25T21:23:11.189Z,2.4
2018-08-25T21:26:11.179Z,2.3
2018-08-25T21:29:11.477Z,2
2018-08-25T21:32:11.087Z,1.9
2018-08-25T21:35:11.240Z,1.7
2018-08-25T21:38:10.979Z,2.1
2018-08-25T21:41:11.257Z,1.9
2018-08-25T21:44:11.252Z,1.8
2018-08-25T21:47:11.265Z,1.8
2018-08-25T21:50:11.059Z,1.6
2018-08-25T21:53:11.187Z,2.1
2018-08-25T21:56:10.945Z,1.9
2018-08-25T21:59:11.259Z,2.1
2018-08-25T22:02:11.095Z,2.1
2018-08-25T22:05:11.110Z,1.9
2018-08-25T22:08:11.056Z,1.7
2018-08-25T22:11:11.981Z,1.8
2018-08-25T22:14:11.051Z,1.7
2018-08-25T22:17:11.198Z,1.6
2018-08-25T22:20:10.984Z,1.6
2018-08-25T22:23:11.060Z,1.6
2018-08-25T22:26:11.042Z,1.7
2018-08-25T22:29:11.125Z,1.6
2018-08-25T22:32:11.056Z,1.7
2018-08-25T22:35:11.178Z,1.7
2018-08-25T22:38:11.057Z,1.8
2018-08-25T22:41:11.609Z,1.8
2018-08-25T22:44:11.144Z,1.7
2018-08-25T22:47:10.942Z,1.6
2018-08-25T22:50:11.071Z,1.6
2018-08-25T22:53:11.150Z,1.6
2018-08-25T22:56:11.049Z,1.6
2018-08-25T22:59:10.884Z,1.6
2018-08-25T23:02:10.948Z,1.6
2018-08-25T23:05:11.014Z,1.6
2018-08-25T23:08:11.165Z,1.8
2018-08-25T23:11:11.076Z,1.8
2018-08-25T23:14:10.915Z,1.7
2018-08-25T23:17:11.975Z,1.7
2018-08-25T23:20:11.025Z,1.6
2018-08-25T23:23:11.112Z,1.6
2018-08-25T23:26:11.055Z,1.6
2018-08-25T23:29:11.039Z,1.6
2018-08-25T23:32:11.128Z,1.6
2018-08-25T23:35:11.154Z,1.8
2018-08-25T23:38:11.130Z,1.6
2018-08-25T23:41:11.114Z,1.6
2018-08-25T23:44:11.092Z,1.6
2018-08-25T23:47:11.112Z,1.6
2018-08-25T23:50:11.082Z,1.7
2018-08-25T23:53:11.196Z,1.7
2018-08-25T23:56:11.345Z,1.7
2018-08-25T23:59:11.075Z,1.6
